createdAt,value
2018-07-28T00:00:29.382Z,40.45
2018-07-28T00:01:29.376Z,40.08
2018-07-28T00:02:29.435Z,40.16
2018-07-28T00:03:29.332Z,39.66
2018-07-28T00:04:29.438Z,39.27
2018-07-28T00:05:29.324Z,39.76
2018-07-28T00:06:29.316Z,40.06
2018-07-28T00:07:29.417Z,40.06
2018-07-28T00:08:29.281Z,39.56
2018-07-28T00:09:29.342Z,40.08
2018-07-28T00:10:29.257Z,39.48
2018-07-28T00:11:29.280Z,39.76
2018-07-28T00:12:29.282Z,39.68
2018-07-28T00:13:29.261Z,39.68
2018-07-28T00:14:29.356Z,40.37
2018-07-28T00:15:29.226Z,40.17
2018-07-28T00:16:29.316Z,40.27
2018-07-28T00:17:29.324Z,40.08
2018-07-28T00:18:29.186Z,39.58
2018-07-28T00:19:29.291Z,40.17
2018-07-28T00:20:29.265Z,40.17
2018-07-28T00:21:29.156Z,40.27
2018-07-28T00:22:29.281Z,40.47
2018-07-28T00:23:29.141Z,39.98
2018-07-28T00:24:29.171Z,39.98
2018-07-28T00:25:29.213Z,40.17
2018-07-28T00:26:29.092Z,39.68
2018-07-28T00:27:29.103Z,40.17
2018-07-28T00:28:29.085Z,39.88
2018-07-28T00:29:29.076Z,40.37
2018-07-28T00:30:29.054Z,39.68
2018-07-28T00:31:29.063Z,40.47
2018-07-28T00:32:29.042Z,40.37
2018-07-28T00:33:29.023Z,39.78
2018-07-28T00:34:29.028Z,40.47
2018-07-28T00:35:28.998Z,39.88
2018-07-28T00:36:28.999Z,39.88
2018-07-28T00:37:29.027Z,39.88
2018-07-28T00:38:28.991Z,39.68
2018-07-28T00:39:29.089Z,39.88
2018-07-28T00:40:29.033Z,40.47
2018-07-28T00:41:28.943Z,39.68
2018-07-28T00:42:28.954Z,40.47
2018-07-28T00:43:29.069Z,39.78
2018-07-28T00:44:28.924Z,40.08
2018-07-28T00:45:28.897Z,39.98
2018-07-28T00:46:28.981Z,39.88
2018-07-28T00:47:28.891Z,40.47
2018-07-28T00:48:28.899Z,39.98
2018-07-28T00:49:28.874Z,40.47
2018-07-28T00:50:28.861Z,40.08
2018-07-28T00:51:28.834Z,40.47
2018-07-28T00:52:28.851Z,39.60
2018-07-28T00:53:28.854Z,40.47
2018-07-28T00:54:28.822Z,40.37
2018-07-28T00:55:28.794Z,39.88
2018-07-28T00:56:28.801Z,40.17
2018-07-28T00:57:28.791Z,39.98
2018-07-28T00:58:28.769Z,39.68
2018-07-28T00:59:28.788Z,40.37
2018-07-28T01:00:28.758Z,39.58
2018-07-28T01:01:29.123Z,39.58
2018-07-28T01:02:28.750Z,40.17
2018-07-28T01:03:28.721Z,39.48
2018-07-28T01:04:28.711Z,39.70
2018-07-28T01:05:28.694Z,39.78
2018-07-28T01:06:28.699Z,40.47
2018-07-28T01:07:28.754Z,40.19
2018-07-28T01:08:28.748Z,39.78
2018-07-28T01:09:28.663Z,39.80
2018-07-28T01:10:28.647Z,39.80
2018-07-28T01:11:28.634Z,39.70
2018-07-28T01:12:28.756Z,39.78
2018-07-28T01:13:28.629Z,40.37
2018-07-28T01:14:28.628Z,40.39
2018-07-28T01:15:28.604Z,40.39
2018-07-28T01:16:28.598Z,39.70
2018-07-28T01:17:28.592Z,40.00
2018-07-28T01:18:28.561Z,40.00
2018-07-28T01:19:28.678Z,40.00
2018-07-28T01:20:28.573Z,40.00
2018-07-28T01:21:30.767Z,39.90
2018-07-28T01:22:28.533Z,40.00
2018-07-28T01:23:28.516Z,40.48
2018-07-28T01:24:28.495Z,39.80
2018-07-28T01:25:28.493Z,39.90
2018-07-28T01:26:28.493Z,40.29
2018-07-28T01:27:28.476Z,39.90
2018-07-28T01:28:28.470Z,40.48
2018-07-28T01:29:28.518Z,39.90
2018-07-28T01:30:28.587Z,39.90
2018-07-28T01:31:28.563Z,40.39
2018-07-28T01:32:28.436Z,40.39
2018-07-28T01:33:28.419Z,40.00
2018-07-28T01:34:28.488Z,40.19
2018-07-28T01:35:28.384Z,40.48
2018-07-28T01:36:28.402Z,39.70
2018-07-28T01:37:28.384Z,39.90
2018-07-28T01:38:28.374Z,40.00
2018-07-28T01:39:28.372Z,39.70
2018-07-28T01:40:28.328Z,39.80
2018-07-28T01:41:28.327Z,39.80
2018-07-28T01:42:28.312Z,39.60
2018-07-28T01:43:28.461Z,40.00
2018-07-28T01:44:28.365Z,39.70
2018-07-28T01:45:28.301Z,40.48
2018-07-28T01:46:28.294Z,39.60
2018-07-28T01:47:28.303Z,40.48
2018-07-28T01:48:28.358Z,40.69
2018-07-28T01:49:28.322Z,40.00
2018-07-28T01:50:28.235Z,39.70
2018-07-28T01:51:28.243Z,40.39
2018-07-28T01:52:28.217Z,40.19
2018-07-28T01:53:28.213Z,40.29
2018-07-28T01:54:28.303Z,40.01
2018-07-28T01:55:28.291Z,40.39
2018-07-28T01:56:28.173Z,39.82
2018-07-28T01:57:28.165Z,40.41
2018-07-28T01:58:28.167Z,40.01
2018-07-28T01:59:28.250Z,40.21
2018-07-28T02:00:28.172Z,40.00
2018-07-28T02:01:28.123Z,40.19
2018-07-28T02:02:28.130Z,40.19
2018-07-28T02:03:28.121Z,39.90
2018-07-28T02:04:28.095Z,40.39
2018-07-28T02:05:28.067Z,39.82
2018-07-28T02:06:28.064Z,39.82
2018-07-28T02:07:28.076Z,39.72
2018-07-28T02:08:28.058Z,40.21
2018-07-28T02:09:28.151Z,39.70
2018-07-28T02:10:28.021Z,40.21
2018-07-28T02:11:28.041Z,40.39
2018-07-28T02:12:28.006Z,39.72
2018-07-28T02:13:28.029Z,40.21
2018-07-28T02:14:28.041Z,39.62
2018-07-28T02:15:27.982Z,40.19
2018-07-28T02:16:27.961Z,39.52
2018-07-28T02:17:27.961Z,39.70
2018-07-28T02:18:28.076Z,39.62
2018-07-28T02:19:27.924Z,39.82
2018-07-28T02:20:27.923Z,39.70
2018-07-28T02:21:28.020Z,39.82
2018-07-28T02:22:28.007Z,39.82
2018-07-28T02:23:27.911Z,39.82
2018-07-28T02:24:27.975Z,39.92
2018-07-28T02:25:27.871Z,39.82
2018-07-28T02:26:27.853Z,39.62
2018-07-28T02:27:27.851Z,39.82
2018-07-28T02:28:27.878Z,39.62
2018-07-28T02:29:27.899Z,39.62
2018-07-28T02:30:27.818Z,39.92
2018-07-28T02:31:27.822Z,39.82
2018-07-28T02:32:27.862Z,40.01
2018-07-28T02:33:27.918Z,39.32
2018-07-28T02:34:27.770Z,39.62
2018-07-28T02:35:27.864Z,39.82
2018-07-28T02:36:27.783Z,39.62
2018-07-28T02:37:27.801Z,39.72
2018-07-28T02:38:27.776Z,39.82
2018-07-28T02:39:27.865Z,39.62
2018-07-28T02:40:28.084Z,39.32
2018-07-28T02:41:27.706Z,39.92
2018-07-28T02:42:27.821Z,39.62
2018-07-28T02:43:27.699Z,39.62
2018-07-28T02:44:27.787Z,40.21
2018-07-28T02:45:27.704Z,39.52
2018-07-28T02:46:27.662Z,39.92
2018-07-28T02:47:27.682Z,40.11
2018-07-28T02:48:27.646Z,39.72
2018-07-28T02:49:27.698Z,39.52
2018-07-28T02:50:27.609Z,39.32
2018-07-28T02:51:27.598Z,39.72
2018-07-28T02:52:27.604Z,39.72
2018-07-28T02:53:27.612Z,39.82
2018-07-28T02:54:27.708Z,39.62
2018-07-28T02:55:27.562Z,39.52
2018-07-28T02:56:27.560Z,39.34
2018-07-28T02:57:27.531Z,39.72
2018-07-28T02:58:27.540Z,39.62
2018-07-28T02:59:27.613Z,40.01
2018-07-28T03:00:27.501Z,39.34
2018-07-28T03:01:27.487Z,39.62
2018-07-28T03:02:27.475Z,39.62
2018-07-28T03:03:27.503Z,39.52
2018-07-28T03:04:27.491Z,39.52
2018-07-28T03:05:27.567Z,39.34
2018-07-28T03:06:27.490Z,39.34
2018-07-28T03:07:27.539Z,39.62
2018-07-28T03:08:27.431Z,39.54
2018-07-28T03:09:27.414Z,39.64
2018-07-28T03:10:27.418Z,39.94
2018-07-28T03:11:27.392Z,39.82
2018-07-28T03:12:27.420Z,39.64
2018-07-28T03:13:27.378Z,39.54
2018-07-28T03:14:27.371Z,39.74
2018-07-28T03:15:27.432Z,39.72
2018-07-28T03:16:27.361Z,39.74
2018-07-28T03:17:27.326Z,39.74
2018-07-28T03:18:27.347Z,39.34
2018-07-28T03:19:27.354Z,39.92
2018-07-28T03:20:27.320Z,39.54
2018-07-28T03:21:27.301Z,39.32
2018-07-28T03:22:27.313Z,40.03
2018-07-28T03:23:27.278Z,39.54
2018-07-28T03:24:27.311Z,39.54
2018-07-28T03:25:27.247Z,40.03
2018-07-28T03:26:27.237Z,39.54
2018-07-28T03:27:27.583Z,40.53
2018-07-28T03:28:27.353Z,40.13
2018-07-28T03:29:27.206Z,40.53
2018-07-28T03:30:27.787Z,40.53
2018-07-28T03:31:27.342Z,40.33
2018-07-28T03:32:27.193Z,40.23
2018-07-28T03:33:27.162Z,40.43
2018-07-28T03:34:27.189Z,40.43
2018-07-28T03:35:27.132Z,40.53
2018-07-28T03:36:27.146Z,40.23
2018-07-28T03:37:27.131Z,40.13
2018-07-28T03:38:27.106Z,40.23
2018-07-28T03:39:27.165Z,39.54
2018-07-28T03:40:27.098Z,39.74
2018-07-28T03:41:27.089Z,40.13
2018-07-28T03:42:27.117Z,40.03
2018-07-28T03:43:27.051Z,40.23
2018-07-28T03:44:27.075Z,40.23
2018-07-28T03:45:27.057Z,40.13
2018-07-28T03:46:27.028Z,39.74
2018-07-28T03:47:27.021Z,39.54
2018-07-28T03:48:26.995Z,39.64
2018-07-28T03:49:26.997Z,39.54
2018-07-28T03:50:27.303Z,39.84
2018-07-28T03:51:26.982Z,39.54
2018-07-28T03:52:27.100Z,39.64
2018-07-28T03:53:26.954Z,39.64
2018-07-28T03:54:26.963Z,39.74
2018-07-28T03:55:27.060Z,39.74
2018-07-28T03:56:27.079Z,40.03
2018-07-28T03:57:27.032Z,40.13
2018-07-28T03:58:26.958Z,40.43
2018-07-28T03:59:27.024Z,40.03
2018-07-28T04:00:27.056Z,39.95
2018-07-28T04:01:27.013Z,40.53
2018-07-28T04:02:26.893Z,40.33
2018-07-28T04:03:26.854Z,40.33
2018-07-28T04:04:26.953Z,40.23
2018-07-28T04:05:26.836Z,40.23
2018-07-28T04:06:26.934Z,40.53
2018-07-28T04:07:26.803Z,40.43
2018-07-28T04:08:26.787Z,40.23
2018-07-28T04:09:26.807Z,40.43
2018-07-28T04:10:27.469Z,40.23
2018-07-28T04:11:26.752Z,39.94
2018-07-28T04:12:26.773Z,40.23
2018-07-28T04:13:26.730Z,39.25
2018-07-28T04:14:26.836Z,40.23
2018-07-28T04:15:26.914Z,40.23
2018-07-28T04:16:26.786Z,40.33
2018-07-28T04:17:26.709Z,40.33
2018-07-28T04:18:26.693Z,39.74
2018-07-28T04:19:26.704Z,39.84
2018-07-28T04:20:26.669Z,39.64
2018-07-28T04:21:26.652Z,39.94
2018-07-28T04:22:26.653Z,39.94
2018-07-28T04:23:26.767Z,39.84
2018-07-28T04:24:26.629Z,40.23
2018-07-28T04:25:26.613Z,40.03
2018-07-28T04:26:26.626Z,39.74
2018-07-28T04:27:26.670Z,39.84
2018-07-28T04:28:26.657Z,40.23
2018-07-28T04:29:26.605Z,39.84
2018-07-28T04:30:26.580Z,39.64
2018-07-28T04:31:26.542Z,39.84
2018-07-28T04:32:27.175Z,39.84
2018-07-28T04:33:26.541Z,39.74
2018-07-28T04:34:26.552Z,39.94
2018-07-28T04:35:26.531Z,39.94
2018-07-28T04:36:26.506Z,39.64
2018-07-28T04:37:26.492Z,39.74
2018-07-28T04:38:26.488Z,39.84
2018-07-28T04:39:26.491Z,39.84
2018-07-28T04:40:26.471Z,39.64
2018-07-28T04:41:26.440Z,40.23
2018-07-28T04:42:26.433Z,40.33
2018-07-28T04:43:26.459Z,39.84
2018-07-28T04:44:26.428Z,40.13
2018-07-28T04:45:26.429Z,40.23
2018-07-28T04:46:26.410Z,39.74
2018-07-28T04:47:26.458Z,39.64
2018-07-28T04:48:26.387Z,40.23
2018-07-28T04:49:26.520Z,40.23
2018-07-28T04:50:26.360Z,39.64
2018-07-28T04:51:26.364Z,40.13
2018-07-28T04:52:26.335Z,39.64
2018-07-28T04:53:26.341Z,39.84
2018-07-28T04:54:26.358Z,40.13
2018-07-28T04:55:26.353Z,39.94
2018-07-28T04:56:26.297Z,40.23
2018-07-28T04:57:26.286Z,40.23
2018-07-28T04:58:26.281Z,39.64
2018-07-28T04:59:26.278Z,40.33
2018-07-28T05:00:26.245Z,40.23
2018-07-28T05:01:26.297Z,40.33
2018-07-28T05:02:26.241Z,40.13
2018-07-28T05:03:26.253Z,40.53
2018-07-28T05:04:26.242Z,39.94
2018-07-28T05:05:26.221Z,39.94
2018-07-28T05:06:26.188Z,40.43
2018-07-28T05:07:26.250Z,39.94
2018-07-28T05:08:26.160Z,40.43
2018-07-28T05:09:26.165Z,39.74
2018-07-28T05:10:26.167Z,39.84
2018-07-28T05:11:26.158Z,40.25
2018-07-28T05:12:26.120Z,39.74
2018-07-28T05:13:26.122Z,39.84
2018-07-28T05:14:26.115Z,39.84
2018-07-28T05:15:26.180Z,39.94
2018-07-28T05:16:26.089Z,39.84
2018-07-28T05:17:26.204Z,39.64
2018-07-28T05:18:26.075Z,39.34
2018-07-28T05:19:26.198Z,39.64
2018-07-28T05:20:26.052Z,39.64
2018-07-28T05:21:26.044Z,39.64
2018-07-28T05:22:26.021Z,39.84
2018-07-28T05:23:26.016Z,40.13
2018-07-28T05:24:26.064Z,40.16
2018-07-28T05:25:26.010Z,39.74
2018-07-28T05:26:25.983Z,39.66
2018-07-28T05:27:25.961Z,39.54
2018-07-28T05:28:25.982Z,39.74
2018-07-28T05:29:25.956Z,39.64
2018-07-28T05:30:26.080Z,39.74
2018-07-28T05:31:25.938Z,40.13
2018-07-28T05:32:25.940Z,40.05
2018-07-28T05:33:25.900Z,39.74
2018-07-28T05:34:25.902Z,40.03
2018-07-28T05:35:25.910Z,39.54
2018-07-28T05:36:25.899Z,39.94
2018-07-28T05:37:25.949Z,40.03
2018-07-28T05:38:25.860Z,40.25
2018-07-28T05:39:25.857Z,40.53
2018-07-28T05:40:25.978Z,40.94
2018-07-28T05:41:25.985Z,40.53
2018-07-28T05:42:25.868Z,40.72
2018-07-28T05:43:25.798Z,40.64
2018-07-28T05:44:25.811Z,40.45
2018-07-28T05:45:25.785Z,40.53
2018-07-28T05:46:25.819Z,40.64
2018-07-28T05:47:25.866Z,40.53
2018-07-28T05:48:25.763Z,40.72
2018-07-28T05:49:25.755Z,40.45
2018-07-28T05:50:25.735Z,40.53
2018-07-28T05:51:25.714Z,40.94
2018-07-28T05:52:25.714Z,40.45
2018-07-28T05:53:25.700Z,40.43
2018-07-28T05:54:25.690Z,40.45
2018-07-28T05:55:25.689Z,40.64
2018-07-28T05:56:25.734Z,41.04
2018-07-28T05:57:25.702Z,41.02
2018-07-28T05:58:25.658Z,41.22
2018-07-28T05:59:25.782Z,41.14
2018-07-28T06:00:25.694Z,41.22
2018-07-28T06:01:25.603Z,41.11
2018-07-28T06:02:25.720Z,40.62
2018-07-28T06:03:25.704Z,40.72
2018-07-28T06:04:25.578Z,40.62
2018-07-28T06:05:25.577Z,40.92
2018-07-28T06:06:25.569Z,41.22
2018-07-28T06:07:25.564Z,41.11
2018-07-28T06:08:25.647Z,40.62
2018-07-28T06:09:25.566Z,40.72
2018-07-28T06:10:25.535Z,40.62
2018-07-28T06:11:25.617Z,40.62
2018-07-28T06:12:25.506Z,40.72
2018-07-28T06:13:25.483Z,41.22
2018-07-28T06:14:25.472Z,40.72
2018-07-28T06:15:25.479Z,41.02
2018-07-28T06:16:25.467Z,40.72
2018-07-28T06:17:25.466Z,40.74
2018-07-28T06:18:25.443Z,40.92
2018-07-28T06:19:25.419Z,40.72
2018-07-28T06:20:25.619Z,40.82
2018-07-28T06:21:25.500Z,40.72
2018-07-28T06:22:25.396Z,40.74
2018-07-28T06:23:25.385Z,40.72
2018-07-28T06:24:25.400Z,40.82
2018-07-28T06:25:25.444Z,40.82
2018-07-28T06:26:25.348Z,41.24
2018-07-28T06:27:25.342Z,40.84
2018-07-28T06:28:25.442Z,40.94
2018-07-28T06:29:25.332Z,40.94
2018-07-28T06:30:25.329Z,40.84
2018-07-28T06:31:25.314Z,40.94
2018-07-28T06:32:25.291Z,40.82
2018-07-28T06:33:25.284Z,41.04
2018-07-28T06:34:25.280Z,41.14
2018-07-28T06:35:25.399Z,41.02
2018-07-28T06:36:25.283Z,41.41
2018-07-28T06:37:25.234Z,40.82
2018-07-28T06:38:25.218Z,41.51
2018-07-28T06:39:25.245Z,41.63
2018-07-28T06:40:25.214Z,41.24
2018-07-28T06:41:25.218Z,41.02
2018-07-28T06:42:25.200Z,41.11
2018-07-28T06:43:25.185Z,40.82
2018-07-28T06:44:26.922Z,41.41
2018-07-28T06:45:25.226Z,41.71
2018-07-28T06:46:25.175Z,41.51
2018-07-28T06:47:25.263Z,41.41
2018-07-28T06:48:25.126Z,41.31
2018-07-28T06:49:25.131Z,41.22
2018-07-28T06:50:25.099Z,41.51
2018-07-28T06:51:25.085Z,41.61
2018-07-28T06:52:25.071Z,41.53
2018-07-28T06:53:25.069Z,41.24
2018-07-28T06:54:25.111Z,41.22
2018-07-28T06:55:25.175Z,41.53
2018-07-28T06:56:25.051Z,41.33
2018-07-28T06:57:25.739Z,41.41
2018-07-28T06:58:25.038Z,41.22
2018-07-28T06:59:25.009Z,41.14
2018-07-28T07:00:24.991Z,41.41
2018-07-28T07:01:25.013Z,41.11
2018-07-28T07:02:25.044Z,41.41
2018-07-28T07:03:24.972Z,41.31
2018-07-28T07:04:24.960Z,41.51
2018-07-28T07:05:25.028Z,41.31
2018-07-28T07:06:24.993Z,41.11
2018-07-28T07:07:25.009Z,41.31
2018-07-28T07:08:25.037Z,41.33
2018-07-28T07:09:24.902Z,41.11
2018-07-28T07:10:24.886Z,41.11
2018-07-28T07:11:24.893Z,41.22
2018-07-28T07:12:24.957Z,41.11
2018-07-28T07:13:24.875Z,40.92
2018-07-28T07:14:24.841Z,40.92
2018-07-28T07:15:24.848Z,41.02
2018-07-28T07:16:24.953Z,40.92
2018-07-28T07:17:24.841Z,40.92
2018-07-28T07:18:24.826Z,40.90
2018-07-28T07:19:24.814Z,41.29
2018-07-28T07:20:24.785Z,41.00
2018-07-28T07:21:24.798Z,41.02
2018-07-28T07:22:24.764Z,41.22
2018-07-28T07:23:24.864Z,41.11
2018-07-28T07:24:24.741Z,41.49
2018-07-28T07:25:24.743Z,41.11
2018-07-28T07:26:24.869Z,40.92
2018-07-28T07:27:24.710Z,40.90
2018-07-28T07:28:24.695Z,40.90
2018-07-28T07:29:24.808Z,41.19
2018-07-28T07:30:24.761Z,41.41
2018-07-28T07:31:24.707Z,41.61
2018-07-28T07:32:24.788Z,41.02
2018-07-28T07:33:24.799Z,41.19
2018-07-28T07:34:24.750Z,40.92
2018-07-28T07:35:24.710Z,41.09
2018-07-28T07:36:24.611Z,41.19
2018-07-28T07:37:24.719Z,41.00
2018-07-28T07:38:24.589Z,41.09
2018-07-28T07:39:24.696Z,41.11
2018-07-28T07:40:24.567Z,41.88
2018-07-28T07:41:24.648Z,41.02
2018-07-28T07:42:24.552Z,41.00
2018-07-28T07:43:24.553Z,40.72
2018-07-28T07:44:24.631Z,41.11
2018-07-28T07:45:24.584Z,41.11
2018-07-28T07:46:24.548Z,41.59
2018-07-28T07:47:24.610Z,41.71
2018-07-28T07:48:24.511Z,41.88
2018-07-28T07:49:24.503Z,41.90
2018-07-28T07:50:24.574Z,41.71
2018-07-28T07:51:24.464Z,40.92
2018-07-28T07:52:24.451Z,41.51
2018-07-28T07:53:24.532Z,42.00
2018-07-28T07:54:24.461Z,41.71
2018-07-28T07:55:24.561Z,41.90
2018-07-28T07:56:24.459Z,40.92
2018-07-28T07:57:24.409Z,41.51
2018-07-28T07:58:24.487Z,41.11
2018-07-28T07:59:24.366Z,42.10
2018-07-28T08:00:24.369Z,41.90
2018-07-28T08:01:24.353Z,41.71
2018-07-28T08:02:24.471Z,41.80
2018-07-28T08:03:24.347Z,41.71
2018-07-28T08:04:24.327Z,41.41
2018-07-28T08:05:24.352Z,41.19
2018-07-28T08:06:24.345Z,41.31
2018-07-28T08:07:24.449Z,41.22
2018-07-28T08:08:24.276Z,41.49
2018-07-28T08:09:24.407Z,41.19
2018-07-28T08:10:24.361Z,41.29
2018-07-28T08:11:24.256Z,41.39
2018-07-28T08:12:24.248Z,41.39
2018-07-28T08:13:24.230Z,41.29
2018-07-28T08:14:24.337Z,41.39
2018-07-28T08:15:24.323Z,41.29
2018-07-28T08:16:24.308Z,41.29
2018-07-28T08:17:24.346Z,41.49
2018-07-28T08:18:24.187Z,41.29
2018-07-28T08:19:24.289Z,41.09
2018-07-28T08:20:24.149Z,41.29
2018-07-28T08:21:24.185Z,41.29
2018-07-28T08:22:24.258Z,41.09
2018-07-28T08:23:24.240Z,41.39
2018-07-28T08:24:24.117Z,41.29
2018-07-28T08:25:24.132Z,41.78
2018-07-28T08:26:24.089Z,41.39
2018-07-28T08:27:24.138Z,41.29
2018-07-28T08:28:24.090Z,41.00
2018-07-28T08:29:24.228Z,41.78
2018-07-28T08:30:24.072Z,41.98
2018-07-28T08:31:25.722Z,41.49
2018-07-28T08:32:24.076Z,42.28
2018-07-28T08:33:24.066Z,41.88
2018-07-28T08:34:24.125Z,41.59
2018-07-28T08:35:24.104Z,41.39
2018-07-28T08:36:24.056Z,41.09
2018-07-28T08:37:23.964Z,42.08
2018-07-28T08:38:24.016Z,41.88
2018-07-28T08:39:24.094Z,41.88
2018-07-28T08:40:23.937Z,41.19
2018-07-28T08:41:23.941Z,41.19
2018-07-28T08:42:23.924Z,41.59
2018-07-28T08:43:24.051Z,42.08
2018-07-28T08:44:23.949Z,42.18
2018-07-28T08:45:23.894Z,41.59
2018-07-28T08:46:23.874Z,41.88
2018-07-28T08:47:23.865Z,41.78
2018-07-28T08:48:23.877Z,41.98
2018-07-28T08:49:24.005Z,42.18
2018-07-28T08:50:23.832Z,42.38
2018-07-28T08:51:23.839Z,41.78
2018-07-28T08:52:23.827Z,41.78
2018-07-28T08:53:23.841Z,42.16
2018-07-28T08:54:23.860Z,42.18
2018-07-28T08:55:23.916Z,41.98
2018-07-28T08:56:23.801Z,41.49
2018-07-28T08:57:23.807Z,42.06
2018-07-28T08:58:23.767Z,41.59
2018-07-28T08:59:23.760Z,41.78
2018-07-28T09:00:23.732Z,41.59
2018-07-28T09:01:23.895Z,42.18
2018-07-28T09:02:23.712Z,42.28
2018-07-28T09:03:23.733Z,42.18
2018-07-28T09:04:23.701Z,42.08
2018-07-28T09:05:23.812Z,41.77
2018-07-28T09:06:23.716Z,41.96
2018-07-28T09:07:23.660Z,41.56
2018-07-28T09:08:23.683Z,41.29
2018-07-28T09:09:23.647Z,41.88
2018-07-28T09:10:23.640Z,41.39
2018-07-28T09:11:23.679Z,41.77
2018-07-28T09:12:23.674Z,42.35
2018-07-28T09:13:23.621Z,41.29
2018-07-28T09:14:23.645Z,41.27
2018-07-28T09:15:23.705Z,41.08
2018-07-28T09:16:23.704Z,41.39
2018-07-28T09:17:23.567Z,41.56
2018-07-28T09:18:23.556Z,41.86
2018-07-28T09:19:23.572Z,41.86
2018-07-28T09:20:23.535Z,40.98
2018-07-28T09:21:23.535Z,41.49
2018-07-28T09:22:23.514Z,42.06
2018-07-28T09:23:23.556Z,41.17
2018-07-28T09:24:23.501Z,41.67
2018-07-28T09:25:23.613Z,42.06
2018-07-28T09:26:23.462Z,41.86
2018-07-28T09:27:23.586Z,41.27
2018-07-28T09:28:23.454Z,41.47
2018-07-28T09:29:23.565Z,41.56
2018-07-28T09:30:23.433Z,41.08
2018-07-28T09:31:23.502Z,41.27
2018-07-28T09:32:23.395Z,41.27
2018-07-28T09:33:23.416Z,41.27
2018-07-28T09:34:23.410Z,41.77
2018-07-28T09:35:23.378Z,41.56
2018-07-28T09:36:23.389Z,41.27
2018-07-28T09:37:23.358Z,41.47
2018-07-28T09:38:23.335Z,41.67
2018-07-28T09:39:23.349Z,41.37
2018-07-28T09:40:23.319Z,41.56
2018-07-28T09:41:23.390Z,41.74
2018-07-28T09:42:23.433Z,42.35
2018-07-28T09:43:23.291Z,42.25
2018-07-28T09:44:23.313Z,42.04
2018-07-28T09:45:23.264Z,42.06
2018-07-28T09:46:23.311Z,41.55
2018-07-28T09:47:23.365Z,42.04
2018-07-28T09:48:23.247Z,41.37
2018-07-28T09:49:23.270Z,42.45
2018-07-28T09:50:23.310Z,41.25
2018-07-28T09:51:23.222Z,41.17
2018-07-28T09:52:23.205Z,41.45
2018-07-28T09:53:23.260Z,42.06
2018-07-28T09:54:23.191Z,41.35
2018-07-28T09:55:23.315Z,41.25
2018-07-28T09:56:23.155Z,41.35
2018-07-28T09:57:23.144Z,41.37
2018-07-28T09:58:23.131Z,41.55
2018-07-28T09:59:23.157Z,41.35
2018-07-28T10:00:23.211Z,42.14
2018-07-28T10:01:23.118Z,41.84
2018-07-28T10:02:23.087Z,41.16
2018-07-28T10:03:23.088Z,41.55
2018-07-28T10:04:23.082Z,41.55
2018-07-28T10:05:23.209Z,41.16
2018-07-28T10:06:23.081Z,41.64
2018-07-28T10:07:23.063Z,41.16
2018-07-28T10:08:23.021Z,41.74
2018-07-28T10:09:23.104Z,41.74
2018-07-28T10:10:23.110Z,41.74
2018-07-28T10:11:23.037Z,41.55
2018-07-28T10:12:23.019Z,41.35
2018-07-28T10:13:22.982Z,41.35
2018-07-28T10:14:22.972Z,41.25
2018-07-28T10:15:22.964Z,41.74
2018-07-28T10:16:22.969Z,41.35
2018-07-28T10:17:23.050Z,41.16
2018-07-28T10:18:22.919Z,41.64
2018-07-28T10:19:22.932Z,41.16
2018-07-28T10:20:22.971Z,41.25
2018-07-28T10:21:22.890Z,41.16
2018-07-28T10:22:22.957Z,41.25
2018-07-28T10:23:22.888Z,41.35
2018-07-28T10:24:22.988Z,41.35
2018-07-28T10:25:22.974Z,41.64
2018-07-28T10:26:22.848Z,41.16
2018-07-28T10:27:22.944Z,41.35
2018-07-28T10:28:22.812Z,41.45
2018-07-28T10:29:22.893Z,41.45
2018-07-28T10:30:22.872Z,41.35
2018-07-28T10:31:22.929Z,41.35
2018-07-28T10:32:22.813Z,41.35
2018-07-28T10:33:22.768Z,41.45
2018-07-28T10:34:22.791Z,41.16
2018-07-28T10:35:22.830Z,42.04
2018-07-28T10:36:22.861Z,41.35
2018-07-28T10:37:22.858Z,41.45
2018-07-28T10:38:22.857Z,42.14
2018-07-28T10:39:22.831Z,41.16
2018-07-28T10:40:22.703Z,41.06
2018-07-28T10:41:22.684Z,41.84
2018-07-28T10:42:22.713Z,42.43
2018-07-28T10:43:22.675Z,41.35
2018-07-28T10:44:22.807Z,41.16
2018-07-28T10:45:22.721Z,41.35
2018-07-28T10:46:22.635Z,41.84
2018-07-28T10:47:22.741Z,41.84
2018-07-28T10:48:22.617Z,41.43
2018-07-28T10:49:22.790Z,41.14
2018-07-28T10:50:22.608Z,41.16
2018-07-28T10:51:22.605Z,42.21
2018-07-28T10:52:22.583Z,42.32
2018-07-28T10:53:22.725Z,42.04
2018-07-28T10:54:22.707Z,41.03
2018-07-28T10:55:22.555Z,41.33
2018-07-28T10:56:22.542Z,41.63
2018-07-28T10:57:22.520Z,41.14
2018-07-28T10:58:23.302Z,41.43
2018-07-28T10:59:22.528Z,41.33
2018-07-28T11:00:22.657Z,41.43
2018-07-28T11:01:22.597Z,41.82
2018-07-28T11:02:22.589Z,41.03
2018-07-28T11:03:22.454Z,41.53
2018-07-28T11:04:22.461Z,40.94
2018-07-28T11:05:22.593Z,40.94
2018-07-28T11:06:22.451Z,41.82
2018-07-28T11:07:22.525Z,41.63
2018-07-28T11:08:22.415Z,40.84
2018-07-28T11:09:22.541Z,41.92
2018-07-28T11:10:22.398Z,40.86
2018-07-28T11:11:22.372Z,41.25
2018-07-28T11:12:22.377Z,41.25
2018-07-28T11:13:22.873Z,41.45
2018-07-28T11:14:22.449Z,41.64
2018-07-28T11:15:22.355Z,41.25
2018-07-28T11:16:22.318Z,41.64
2018-07-28T11:17:22.331Z,41.74
2018-07-28T11:18:22.335Z,41.64
2018-07-28T11:19:22.350Z,41.94
2018-07-28T11:20:22.296Z,40.86
2018-07-28T11:21:22.277Z,40.66
2018-07-28T11:22:22.260Z,40.86
2018-07-28T11:23:22.268Z,40.96
2018-07-28T11:24:22.267Z,41.64
2018-07-28T11:25:22.248Z,40.96
2018-07-28T11:26:22.260Z,40.86
2018-07-28T11:27:22.206Z,40.86
2018-07-28T11:28:22.198Z,40.96
2018-07-28T11:29:22.203Z,41.06
2018-07-28T11:30:22.220Z,41.16
2018-07-28T11:31:22.170Z,40.96
2018-07-28T11:32:22.165Z,40.96
2018-07-28T11:33:22.160Z,41.06
2018-07-28T11:34:22.148Z,41.06
2018-07-28T11:35:22.137Z,41.64
2018-07-28T11:36:22.246Z,41.25
2018-07-28T11:37:22.107Z,41.94
2018-07-28T11:38:22.109Z,42.04
2018-07-28T11:39:22.126Z,42.24
2018-07-28T11:40:22.103Z,41.94
2018-07-28T11:41:22.132Z,41.94
2018-07-28T11:42:22.130Z,42.24
2018-07-28T11:43:22.048Z,42.24
2018-07-28T11:44:22.033Z,42.45
2018-07-28T11:45:22.100Z,42.43
2018-07-28T11:46:22.109Z,42.43
2018-07-28T11:47:22.021Z,42.85
2018-07-28T11:48:22.129Z,42.72
2018-07-28T11:49:22.000Z,42.72
2018-07-28T11:50:21.987Z,42.85
2018-07-28T11:51:22.122Z,42.85
2018-07-28T11:52:22.011Z,42.55
2018-07-28T11:53:21.971Z,42.53
2018-07-28T11:54:22.068Z,42.72
2018-07-28T11:55:21.940Z,42.24
2018-07-28T11:56:22.040Z,42.92
2018-07-28T11:57:21.947Z,42.14
2018-07-28T11:58:22.047Z,42.33
2018-07-28T11:59:21.890Z,42.53
2018-07-28T12:00:21.880Z,42.24
2018-07-28T12:01:21.873Z,42.53
2018-07-28T12:02:21.862Z,42.21
2018-07-28T12:03:22.027Z,42.24
2018-07-28T12:04:21.886Z,42.41
2018-07-28T12:05:21.997Z,42.21
2018-07-28T12:06:21.810Z,42.61
2018-07-28T12:07:21.931Z,42.51
2018-07-28T12:08:21.793Z,42.71
2018-07-28T12:09:21.905Z,42.71
2018-07-28T12:10:21.782Z,42.71
2018-07-28T12:11:21.781Z,42.61
2018-07-28T12:12:21.755Z,42.51
2018-07-28T12:13:21.845Z,42.61
2018-07-28T12:14:21.718Z,42.41
2018-07-28T12:15:21.834Z,42.51
2018-07-28T12:16:21.715Z,42.41
2018-07-28T12:17:21.830Z,42.11
2018-07-28T12:18:21.789Z,42.11
2018-07-28T12:19:21.691Z,42.41
2018-07-28T12:20:21.690Z,42.29
2018-07-28T12:21:21.649Z,42.39
2018-07-28T12:22:21.680Z,42.61
2018-07-28T12:23:21.650Z,42.29
2018-07-28T12:24:21.630Z,42.41
2018-07-28T12:25:21.629Z,42.58
2018-07-28T12:26:21.614Z,42.51
2018-07-28T12:27:21.671Z,42.51
2018-07-28T12:28:21.717Z,42.49
2018-07-28T12:29:21.564Z,42.58
2018-07-28T12:30:21.594Z,42.21
2018-07-28T12:31:21.590Z,42.39
2018-07-28T12:32:21.562Z,42.51
2018-07-28T12:33:21.549Z,42.41
2018-07-28T12:34:21.649Z,42.19
2018-07-28T12:35:21.549Z,41.14
2018-07-28T12:36:21.596Z,42.29
2018-07-28T12:37:21.593Z,42.51
2018-07-28T12:38:21.483Z,42.29
2018-07-28T12:39:21.462Z,42.80
2018-07-28T12:40:21.485Z,42.51
2018-07-28T12:41:21.543Z,42.51
2018-07-28T12:42:21.547Z,42.51
2018-07-28T12:43:21.488Z,42.21
2018-07-28T12:44:21.413Z,42.21
2018-07-28T12:45:21.419Z,42.80
2018-07-28T12:46:21.397Z,42.80
2018-07-28T12:47:21.383Z,42.51
2018-07-28T12:48:21.382Z,42.80
2018-07-28T12:49:21.665Z,42.82
2018-07-28T12:50:21.482Z,42.51
2018-07-28T12:51:21.341Z,42.33
2018-07-28T12:52:21.431Z,42.41